createdAt,value
2022-12-23T00:00:53.842Z,45.08
2022-12-23T00:03:27.316Z,37.40
2022-12-23T00:06:00.294Z,45.70
2022-12-23T00:08:34.443Z,48.72
2022-12-23T00:11:14.277Z,39.05
2022-12-23T00:14:04.859Z,26.92
2022-12-23T00:16:37.974Z,29.23
2022-12-23T00:19:10.554Z,25.05
2022-12-23T00:21:42.864Z,19.30
2022-12-23T00:24:15.241Z,27.95
2022-12-23T00:26:48.225Z,26.23
2022-12-23T00:29:20.723Z,21.60
2022-12-23T00:31:53.044Z,32.08
2022-12-23T00:34:25.584Z,25.33
2022-12-23T00:36:57.879Z,26.30
2022-12-23T00:39:54.632Z,31.45
2022-12-23T00:42:45.566Z,25.67
2022-12-23T00:45:18.095Z,20.65
2022-12-23T00:48:08.607Z,22.55
2022-12-23T00:50:40.864Z,22.30
2022-12-23T00:53:13.271Z,29.98
2022-12-23T00:55:47.067Z,20.63
2022-12-23T00:58:21.344Z,19.67
2022-12-23T01:01:12.240Z,20.23
2022-12-23T01:04:02.536Z,28.15
2022-12-23T01:06:34.874Z,21.63
2022-12-23T01:09:07.182Z,10.55
2022-12-23T01:11:39.633Z,15.65
2022-12-23T01:14:12.876Z,17.40
2022-12-23T01:16:45.389Z,17.35
2022-12-23T01:19:18.259Z,18.70
2022-12-23T01:21:50.613Z,23.75
2022-12-23T01:24:23.430Z,15.90
2022-12-23T01:26:56.164Z,19.80
2022-12-23T01:29:29.361Z,13.15
2022-12-23T01:32:01.820Z,16.92
2022-12-23T01:34:37.150Z,16.67
2022-12-23T01:37:10.069Z,18.13
2022-12-23T01:39:42.993Z,13.23
2022-12-23T01:42:35.214Z,21.15
2022-12-23T01:45:14.674Z,20.88
2022-12-23T01:47:52.325Z,17.52
2022-12-23T01:50:28.917Z,23.60
2022-12-23T01:53:07.831Z,13.02
2022-12-23T01:55:45.599Z,19.00
2022-12-23T01:58:22.178Z,13.30
2022-12-23T02:01:15.637Z,17.30
2022-12-23T02:03:50.310Z,17.10
2022-12-23T02:06:43.306Z,16.95
2022-12-23T02:09:17.904Z,22.00
2022-12-23T02:12:20.755Z,15.63
2022-12-23T02:15:28.628Z,29.48
2022-12-23T02:18:14.663Z,18.67
2022-12-23T02:21:03.774Z,24.20
2022-12-23T02:24:15.656Z,22.30
2022-12-23T02:27:13.989Z,24.85
2022-12-23T02:30:23.162Z,22.88
2022-12-23T02:33:15.068Z,18.30
2022-12-23T02:35:57.364Z,29.77
2022-12-23T02:38:35.778Z,20.67
2022-12-23T02:41:17.246Z,22.17
2022-12-23T02:43:56.943Z,19.65
2022-12-23T02:46:35.628Z,31.60
2022-12-23T02:49:13.098Z,37.80
2022-12-23T02:51:50.043Z,32.78
2022-12-23T02:54:27.950Z,33.10
2022-12-23T02:57:03.943Z,31.90
2022-12-23T02:59:41.839Z,38.42
2022-12-23T03:02:14.421Z,34.22
2022-12-23T03:04:47.587Z,37.13
2022-12-23T03:07:23.844Z,30.60
2022-12-23T03:10:02.840Z,22.88
2022-12-23T03:12:51.052Z,30.27
2022-12-23T03:15:37.074Z,29.45
2022-12-23T03:18:16.595Z,21.35
2022-12-23T03:23:30.255Z,23.52
2022-12-23T03:26:09.285Z,15.88
2022-12-23T03:28:46.332Z,15.70
2022-12-23T03:31:24.928Z,19.73
2022-12-23T03:34:02.363Z,9.80
2022-12-23T03:36:40.798Z,11.50
2022-12-23T03:39:17.365Z,7.65
2022-12-23T03:41:56.110Z,11.40
2022-12-23T03:44:32.416Z,4.93
2022-12-23T03:47:09.801Z,11.27
2022-12-23T03:49:47.584Z,12.35
2022-12-23T03:52:26.915Z,15.88
2022-12-23T03:55:04.359Z,17.67
2022-12-23T03:57:41.265Z,21.00
2022-12-23T04:00:13.854Z,13.02
2022-12-23T04:02:54.426Z,14.88
2022-12-23T04:05:31.746Z,18.20
2022-12-23T04:08:13.328Z,9.77
2022-12-23T04:10:46.209Z,8.93
2022-12-23T04:13:18.669Z,15.63
2022-12-23T04:15:51.046Z,11.07
2022-12-23T04:18:23.439Z,22.48
2022-12-23T04:20:55.987Z,28.75
2022-12-23T04:23:29.056Z,29.70
2022-12-23T04:26:01.450Z,19.95
2022-12-23T04:28:33.842Z,44.17
2022-12-23T04:31:06.141Z,28.45
2022-12-23T04:33:38.561Z,37.28
2022-12-23T04:36:11.257Z,44.45
2022-12-23T04:38:44.320Z,48.08
2022-12-23T04:41:16.661Z,43.72
2022-12-23T04:43:52.921Z,41.35
2022-12-23T04:46:25.744Z,29.52
2022-12-23T04:48:58.157Z,28.38
2022-12-23T04:51:30.473Z,39.03
2022-12-23T04:54:03.706Z,37.50
2022-12-23T04:56:36.041Z,32.47
2022-12-23T04:59:09.793Z,37.38
2022-12-23T05:01:42.470Z,35.53
2022-12-23T05:04:15.095Z,36.13
2022-12-23T05:06:47.429Z,38.00
2022-12-23T05:09:20.579Z,40.47
2022-12-23T05:11:52.920Z,40.83
2022-12-23T05:14:25.329Z,36.15
2022-12-23T05:17:02.168Z,24.52
2022-12-23T05:19:37.723Z,27.77
2022-12-23T05:22:10.203Z,42.30
2022-12-23T05:24:43.280Z,24.63
2022-12-23T05:27:15.660Z,26.92
2022-12-23T05:29:48.035Z,39.92
2022-12-23T05:32:20.392Z,47.70
2022-12-23T05:34:52.789Z,41.70
2022-12-23T05:37:25.117Z,34.42
2022-12-23T05:39:58.143Z,40.72
2022-12-23T05:42:30.636Z,29.27
2022-12-23T05:45:03.385Z,40.63
2022-12-23T05:47:36.192Z,35.10
2022-12-23T05:50:09.248Z,27.35
2022-12-23T05:52:41.584Z,22.75
2022-12-23T05:55:14.651Z,24.10
2022-12-23T05:57:46.977Z,20.52
2022-12-23T06:00:20.822Z,25.98
2022-12-23T06:02:54.194Z,29.13
2022-12-23T06:05:27.195Z,39.42
2022-12-23T06:07:59.503Z,55.70
2022-12-23T06:10:32.607Z,46.80
2022-12-23T06:13:04.945Z,55.42
2022-12-23T06:15:37.417Z,34.55
2022-12-23T06:18:09.901Z,25.85
2022-12-23T06:20:45.212Z,26.95
2022-12-23T06:23:17.685Z,33.28
2022-12-23T06:25:58.232Z,37.67
2022-12-23T06:28:30.605Z,33.88
2022-12-23T06:31:03.072Z,25.88
2022-12-23T06:33:35.422Z,35.55
2022-12-23T06:36:08.544Z,25.30
2022-12-23T06:38:40.921Z,28.85
2022-12-23T06:41:13.932Z,40.80
2022-12-23T06:43:49.814Z,55.17
2022-12-23T06:46:24.948Z,40.60
2022-12-23T06:48:57.270Z,31.48
2022-12-23T06:51:29.646Z,25.83
2022-12-23T06:54:02.161Z,25.88
2022-12-23T06:56:35.250Z,23.65
2022-12-23T06:59:07.617Z,25.55
2022-12-23T07:01:40.255Z,27.58
2022-12-23T07:04:12.641Z,30.80
2022-12-23T07:06:45.094Z,36.05
2022-12-23T07:09:17.484Z,29.20
2022-12-23T07:11:50.504Z,30.10
2022-12-23T07:14:22.814Z,27.60
2022-12-23T07:16:55.224Z,29.83
2022-12-23T07:19:27.571Z,29.73
2022-12-23T07:21:59.857Z,34.33
2022-12-23T07:24:32.635Z,41.55
2022-12-23T07:27:05.646Z,36.58
2022-12-23T07:29:37.999Z,29.25
2022-12-23T07:32:10.395Z,29.55
2022-12-23T07:34:42.745Z,43.20
2022-12-23T07:37:15.139Z,44.70
2022-12-23T07:39:47.513Z,51.47
2022-12-23T07:45:12.858Z,45.80
2022-12-23T07:47:45.307Z,47.58
2022-12-23T07:50:17.770Z,43.88
2022-12-23T07:52:50.802Z,41.00
2022-12-23T07:55:23.172Z,36.95
2022-12-23T07:57:56.205Z,36.58
2022-12-23T08:00:28.770Z,56.65
2022-12-23T08:03:01.485Z,47.47
2022-12-23T08:05:33.831Z,37.97
2022-12-23T08:08:06.203Z,33.05
2022-12-23T08:10:44.384Z,46.53
2022-12-23T08:13:21.033Z,30.38
2022-12-23T08:15:57.015Z,42.17
2022-12-23T08:18:30.501Z,40.63
2022-12-23T08:21:04.463Z,27.50
2022-12-23T08:23:36.829Z,23.77
2022-12-23T08:26:11.537Z,26.48
2022-12-23T08:28:45.433Z,26.52
2022-12-23T08:31:19.644Z,33.95
2022-12-23T08:33:54.087Z,25.02
2022-12-23T08:36:29.042Z,33.85
2022-12-23T08:39:04.012Z,25.73
2022-12-23T08:41:39.725Z,42.30
2022-12-23T08:44:13.824Z,37.65
2022-12-23T08:46:46.338Z,30.40
2022-12-23T08:49:18.708Z,20.27
2022-12-23T08:51:51.298Z,34.33
2022-12-23T08:54:24.471Z,24.60
2022-12-23T08:56:56.834Z,29.30
2022-12-23T08:59:29.846Z,22.73
2022-12-23T09:02:02.738Z,24.88
2022-12-23T09:04:36.232Z,26.50
2022-12-23T09:07:08.649Z,30.00
2022-12-23T09:09:41.011Z,33.58
2022-12-23T09:12:13.440Z,32.72
2022-12-23T09:14:47.009Z,31.38
2022-12-23T09:17:19.450Z,37.70
2022-12-23T09:19:53.178Z,28.70
2022-12-23T09:22:25.871Z,23.85
2022-12-23T09:25:04.638Z,28.17
2022-12-23T09:27:37.712Z,22.70
2022-12-23T09:30:11.830Z,41.58
2022-12-23T09:32:44.303Z,27.83
2022-12-23T09:35:17.180Z,30.15
2022-12-23T09:37:49.592Z,29.33
2022-12-23T09:40:22.478Z,32.53
2022-12-23T09:43:07.220Z,28.48
2022-12-23T09:45:58.456Z,30.15
2022-12-23T09:48:35.851Z,42.08
2022-12-23T09:51:10.363Z,40.03
2022-12-23T09:53:52.278Z,34.00
2022-12-23T09:56:31.379Z,32.40
2022-12-23T09:59:16.627Z,36.47
2022-12-23T10:01:56.135Z,43.33
2022-12-23T10:04:45.252Z,46.90
2022-12-23T10:07:25.426Z,38.60
2022-12-23T10:09:59.381Z,31.67
2022-12-23T10:12:40.243Z,26.08
2022-12-23T10:15:21.196Z,16.23
2022-12-23T10:17:58.149Z,30.25
2022-12-23T10:20:38.999Z,14.10
2022-12-23T10:23:16.909Z,16.15
2022-12-23T10:25:51.375Z,16.00
2022-12-23T10:28:23.947Z,8.52
2022-12-23T10:31:38.502Z,5.30
2022-12-23T10:34:04.701Z,5.10
2022-12-23T10:36:44.041Z,106.38
2022-12-23T10:39:27.396Z,10.65
2022-12-23T10:42:14.677Z,4.32
2022-12-23T10:45:04.351Z,12.23
2022-12-23T10:50:36.254Z,4.32
2022-12-23T10:53:10.732Z,6.40
2022-12-23T10:55:43.621Z,3.75
2022-12-23T10:58:17.821Z,7.78
2022-12-23T11:00:54.315Z,8.68
2022-12-23T11:03:30.994Z,9.98
2022-12-23T11:06:07.140Z,11.15
2022-12-23T11:08:40.403Z,10.48
2022-12-23T11:11:12.822Z,7.28
2022-12-23T11:13:46.230Z,7.50
2022-12-23T11:16:23.018Z,6.57
2022-12-23T11:18:59.195Z,5.53
2022-12-23T11:21:33.415Z,7.75
2022-12-23T11:24:17.218Z,4.90
2022-12-23T11:26:58.398Z,7.47
2022-12-23T11:29:34.371Z,6.85
2022-12-23T11:32:16.625Z,5.50
2022-12-23T11:34:50.524Z,8.02
2022-12-23T11:37:34.541Z,8.90
2022-12-23T11:40:20.549Z,24.67
2022-12-23T11:42:57.468Z,26.90
2022-12-23T11:45:32.682Z,30.58
2022-12-23T11:48:06.809Z,14.40
2022-12-23T11:50:40.297Z,15.98
2022-12-23T11:53:21.821Z,26.30
2022-12-23T11:55:59.733Z,18.08
2022-12-23T11:58:39.706Z,13.35
2022-12-23T12:01:16.422Z,31.02
2022-12-23T12:03:54.363Z,24.70
2022-12-23T12:06:27.712Z,27.45
2022-12-23T12:09:06.050Z,11.07
2022-12-23T12:11:43.899Z,23.40
2022-12-23T12:14:22.625Z,13.95
2022-12-23T12:17:00.351Z,8.27
2022-12-23T12:19:36.350Z,8.95
2022-12-23T12:22:33.344Z,10.18
2022-12-23T12:25:19.079Z,18.65
2022-12-23T12:27:56.804Z,22.00
2022-12-23T12:30:33.477Z,13.30
2022-12-23T12:33:14.817Z,12.20
2022-12-23T12:35:53.432Z,11.52
2022-12-23T12:38:31.498Z,14.23
2022-12-23T12:41:15.893Z,16.88
2022-12-23T12:43:52.303Z,9.13
2022-12-23T12:46:30.958Z,7.40
2022-12-23T12:49:11.647Z,7.60
2022-12-23T12:51:49.881Z,6.25
2022-12-23T12:54:27.267Z,4.82
2022-12-23T12:57:01.869Z,4.78
2022-12-23T12:59:36.811Z,8.63
2022-12-23T13:02:28.089Z,5.68
2022-12-23T13:05:16.763Z,4.40
2022-12-23T13:08:02.437Z,10.70
2022-12-23T13:10:42.844Z,6.65
2022-12-23T13:13:35.364Z,6.95
2022-12-23T13:16:19.671Z,5.35
2022-12-23T13:18:58.372Z,10.18
2022-12-23T13:21:37.047Z,5.68
2022-12-23T13:24:19.566Z,7.15
2022-12-23T13:27:02.448Z,5.13
2022-12-23T13:29:57.947Z,4.20
2022-12-23T13:32:49.549Z,16.90
2022-12-23T13:35:38.792Z,7.47
2022-12-23T13:38:25.355Z,6.97
2022-12-23T13:41:02.785Z,17.63
2022-12-23T13:43:42.802Z,8.52
2022-12-23T13:46:22.718Z,5.07
2022-12-23T13:49:02.659Z,3.53
2022-12-23T13:51:43.247Z,6.78
2022-12-23T13:54:26.606Z,7.55
2022-12-23T13:57:07.751Z,8.93
2022-12-23T13:59:41.741Z,11.02
2022-12-23T14:02:43.178Z,7.63
2022-12-23T14:05:35.853Z,6.22
2022-12-23T14:08:26.600Z,17.50
2022-12-23T14:11:02.574Z,16.55
2022-12-23T14:13:45.594Z,11.57
2022-12-23T14:16:48.229Z,5.57
2022-12-23T14:19:42.040Z,22.77
2022-12-23T14:22:44.979Z,18.55
2022-12-23T14:25:39.927Z,33.08
2022-12-23T14:28:26.972Z,23.63
2022-12-23T14:30:59.637Z,27.38
2022-12-23T14:33:36.408Z,29.73
2022-12-23T14:36:23.042Z,28.73
2022-12-23T14:39:28.615Z,35.95
2022-12-23T14:42:06.457Z,29.08
2022-12-23T14:44:49.611Z,56.83
2022-12-23T14:47:35.169Z,38.50
2022-12-23T14:50:37.370Z,33.45
2022-12-23T14:53:22.229Z,48.65
2022-12-23T14:56:20.639Z,49.72
2022-12-23T14:59:13.215Z,45.90
2022-12-23T15:01:48.513Z,114.90
2022-12-23T15:04:24.319Z,94.15
2022-12-23T15:07:02.084Z,108.72
2022-12-23T15:09:39.333Z,138.20
2022-12-23T15:12:20.276Z,155.40
2022-12-23T15:14:57.017Z,68.20
2022-12-23T15:17:31.404Z,65.40
2022-12-23T15:20:12.392Z,69.25
2022-12-23T15:22:46.868Z,57.47
2022-12-23T15:25:22.127Z,53.72
2022-12-23T15:28:01.424Z,48.85
2022-12-23T15:33:34.758Z,34.13
2022-12-23T15:36:04.374Z,51.70
2022-12-23T15:38:38.688Z,50.10
2022-12-23T15:41:17.845Z,39.45
2022-12-23T15:43:50.358Z,27.08
2022-12-23T15:46:29.875Z,33.58
2022-12-23T15:49:02.717Z,38.05
2022-12-23T15:54:33.700Z,47.45
2022-12-23T15:57:06.727Z,46.10
2022-12-23T15:59:39.592Z,44.58
2022-12-23T16:02:50.205Z,41.65
2022-12-23T16:05:22.333Z,47.60
2022-12-23T16:08:10.678Z,56.58
2022-12-23T16:10:57.858Z,57.00
2022-12-23T16:13:33.123Z,43.30
2022-12-23T16:16:32.835Z,61.55
2022-12-23T16:19:05.354Z,61.50
2022-12-23T16:21:37.916Z,68.13
2022-12-23T16:24:12.894Z,78.13
2022-12-23T16:26:45.371Z,92.72
2022-12-23T16:29:18.648Z,67.47
2022-12-23T16:32:01.224Z,92.45
2022-12-23T16:34:34.087Z,72.18
2022-12-23T16:37:07.648Z,73.68
2022-12-23T16:39:40.621Z,67.75
2022-12-23T16:42:22.815Z,77.75
2022-12-23T16:44:55.863Z,75.95
2022-12-23T16:47:28.833Z,69.53
2022-12-23T16:50:01.327Z,72.60
2022-12-23T16:52:33.727Z,60.55
2022-12-23T16:55:13.966Z,43.88
2022-12-23T16:57:46.435Z,38.88
2022-12-23T17:00:19.726Z,48.67
2022-12-23T17:02:52.241Z,52.95
2022-12-23T17:05:24.693Z,62.38
2022-12-23T17:07:57.266Z,89.70
2022-12-23T17:10:29.703Z,97.68
2022-12-23T17:13:02.125Z,88.03
2022-12-23T17:15:35.086Z,103.18
2022-12-23T17:18:12.372Z,79.95
2022-12-23T17:20:47.168Z,87.57
2022-12-23T17:23:26.590Z,172.50
2022-12-23T17:25:59.111Z,141.90
2022-12-23T17:28:32.656Z,70.18
2022-12-23T17:31:12.156Z,80.63
2022-12-23T17:33:46.744Z,101.85
2022-12-23T17:36:19.261Z,82.65
2022-12-23T17:38:51.892Z,122.78
2022-12-23T17:41:28.414Z,89.15
2022-12-23T17:44:01.477Z,82.32
2022-12-23T17:46:34.948Z,76.53
2022-12-23T17:49:07.338Z,69.55
2022-12-23T17:51:40.963Z,98.85
2022-12-23T17:54:21.587Z,59.97
2022-12-23T17:59:26.014Z,62.85
2022-12-23T18:01:59.075Z,67.40
2022-12-23T18:04:31.529Z,84.03
2022-12-23T18:07:03.856Z,121.00
2022-12-23T18:09:36.231Z,142.07
2022-12-23T18:12:24.948Z,109.90
2022-12-23T18:14:57.910Z,86.65
2022-12-23T18:17:31.368Z,116.72
2022-12-23T18:20:04.430Z,100.65
2022-12-23T18:22:36.926Z,88.20
2022-12-23T18:25:15.641Z,145.77
2022-12-23T18:27:48.082Z,90.88
2022-12-23T18:30:21.725Z,121.80
2022-12-23T18:32:54.854Z,124.25
2022-12-23T18:35:30.032Z,128.88
2022-12-23T18:38:02.351Z,135.88
2022-12-23T18:40:34.973Z,127.05
2022-12-23T18:43:15.594Z,111.15
2022-12-23T18:45:52.760Z,105.10
2022-12-23T18:48:26.672Z,100.75
2022-12-23T18:50:59.024Z,91.45
2022-12-23T18:53:31.340Z,88.65
2022-12-23T18:56:03.909Z,84.85
2022-12-23T18:58:36.232Z,100.80
2022-12-23T19:01:11.839Z,89.22
2022-12-23T19:03:45.915Z,89.25
2022-12-23T19:06:18.280Z,77.20
2022-12-23T19:08:50.619Z,81.93
2022-12-23T19:11:22.973Z,82.95
2022-12-23T19:13:55.261Z,75.10
2022-12-23T19:16:27.670Z,79.55
2022-12-23T19:19:00.872Z,73.32
2022-12-23T19:21:33.390Z,83.40
2022-12-23T19:24:05.916Z,84.63
2022-12-23T19:26:38.312Z,88.55
2022-12-23T19:29:10.710Z,61.85
2022-12-23T19:31:43.146Z,67.85
2022-12-23T19:34:16.233Z,58.97
2022-12-23T19:36:48.715Z,63.35
2022-12-23T19:39:23.302Z,77.68
2022-12-23T19:41:55.925Z,93.60
2022-12-23T19:44:28.366Z,90.57
2022-12-23T19:47:01.732Z,99.53
2022-12-23T19:49:34.669Z,88.85
2022-12-23T19:52:07.103Z,69.47
2022-12-23T19:54:39.431Z,70.55
2022-12-23T19:57:11.892Z,66.80
2022-12-23T19:59:44.205Z,67.47
2022-12-23T20:02:16.984Z,58.03
2022-12-23T20:04:50.054Z,70.80
2022-12-23T20:07:22.545Z,72.28
2022-12-23T20:09:54.954Z,79.20
2022-12-23T20:12:27.327Z,71.05
2022-12-23T20:14:59.677Z,82.18
2022-12-23T20:17:32.080Z,88.25
2022-12-23T20:20:06.911Z,73.10
2022-12-23T20:22:39.288Z,54.40
2022-12-23T20:25:11.599Z,60.08
2022-12-23T20:27:43.989Z,75.38
2022-12-23T20:30:16.380Z,54.20
2022-12-23T20:32:48.763Z,49.78
2022-12-23T20:35:21.801Z,58.72
2022-12-23T20:37:54.208Z,60.72
2022-12-23T20:40:26.528Z,66.95
2022-12-23T20:42:59.109Z,66.13
2022-12-23T20:45:31.493Z,65.15
2022-12-23T20:48:04.651Z,55.70
2022-12-23T20:50:39.225Z,79.68
2022-12-23T20:53:11.755Z,76.60
2022-12-23T20:55:44.227Z,63.90
2022-12-23T20:58:34.965Z,65.50
2022-12-23T21:01:08.722Z,62.97
2022-12-23T21:03:41.453Z,69.95
2022-12-23T21:06:14.691Z,66.38
2022-12-23T21:08:47.705Z,65.95
2022-12-23T21:11:20.055Z,71.15
2022-12-23T21:13:52.485Z,60.30
2022-12-23T21:16:24.845Z,65.78
2022-12-23T21:18:58.073Z,57.20
2022-12-23T21:21:31.180Z,47.75
2022-12-23T21:24:04.767Z,53.92
2022-12-23T21:26:37.689Z,50.75
2022-12-23T21:29:10.553Z,34.33
2022-12-23T21:31:42.928Z,30.80
2022-12-23T21:34:15.413Z,27.08
2022-12-23T21:36:48.494Z,20.77
2022-12-23T21:39:20.921Z,14.38
2022-12-23T21:41:53.246Z,12.40
2022-12-23T21:44:25.815Z,14.05
2022-12-23T21:46:58.179Z,13.90
2022-12-23T21:49:30.571Z,75.47
2022-12-23T21:52:03.942Z,66.32
2022-12-23T21:54:36.374Z,75.55
2022-12-23T21:57:09.191Z,79.82
2022-12-23T21:59:41.563Z,50.80
2022-12-23T22:02:15.617Z,54.05
2022-12-23T22:04:48.122Z,38.55
2022-12-23T22:07:21.125Z,25.92
2022-12-23T22:09:53.499Z,21.25
2022-12-23T22:12:25.781Z,13.95
2022-12-23T22:14:58.194Z,17.95
2022-12-23T22:17:30.520Z,56.88
2022-12-23T22:20:03.726Z,53.10
2022-12-23T22:22:36.721Z,47.65
2022-12-23T22:25:09.671Z,35.53
2022-12-23T22:27:42.009Z,33.38
2022-12-23T22:30:14.698Z,46.45
2022-12-23T22:32:47.215Z,27.45
2022-12-23T22:35:19.622Z,32.25
2022-12-23T22:37:52.613Z,46.90
2022-12-23T22:40:25.024Z,56.08
2022-12-23T22:42:57.301Z,57.47
2022-12-23T22:45:29.964Z,46.67
2022-12-23T22:48:02.579Z,51.53
2022-12-23T22:50:35.169Z,46.88
2022-12-23T22:53:08.093Z,36.63
2022-12-23T22:55:40.771Z,29.52
2022-12-23T22:58:13.078Z,49.88
2022-12-23T23:00:45.470Z,41.70
2022-12-23T23:03:17.859Z,38.47
2022-12-23T23:05:58.575Z,48.58
2022-12-23T23:08:33.571Z,41.83
2022-12-23T23:11:06.035Z,44.17
2022-12-23T23:13:38.373Z,56.05
2022-12-23T23:16:10.740Z,47.08
2022-12-23T23:18:43.290Z,56.13
2022-12-23T23:21:15.936Z,44.78
2022-12-23T23:23:49.134Z,69.60
2022-12-23T23:26:25.959Z,56.08
2022-12-23T23:28:58.251Z,57.83
2022-12-23T23:31:45.880Z,61.50
2022-12-23T23:34:18.279Z,53.33
2022-12-23T23:36:50.728Z,44.28
2022-12-23T23:39:23.941Z,55.08
2022-12-23T23:41:56.367Z,64.40
2022-12-23T23:44:28.789Z,73.60
2022-12-23T23:47:01.367Z,69.18
2022-12-23T23:49:33.865Z,75.30
2022-12-23T23:52:06.200Z,56.97
2022-12-23T23:54:39.174Z,68.53
2022-12-23T23:57:11.611Z,58.45
2022-12-23T23:59:43.947Z,56.97
